createdAt,value
2023-04-15T00:01:08.159Z,7.98
2023-04-15T00:03:36.419Z,7.97
2023-04-15T00:06:03.848Z,7.85
2023-04-15T00:08:31.163Z,7.79
2023-04-15T00:11:02.882Z,7.80
2023-04-15T00:13:30.350Z,7.79
2023-04-15T00:15:57.527Z,7.84
2023-04-15T00:18:25.149Z,7.86
2023-04-15T00:20:52.673Z,7.90
2023-04-15T00:23:19.824Z,7.94
2023-04-15T00:25:47.575Z,7.86
2023-04-15T00:28:14.699Z,7.84
2023-04-15T00:30:43.184Z,7.99
2023-04-15T00:33:10.710Z,8.10
2023-04-15T00:35:37.975Z,8.09
2023-04-15T00:38:06.100Z,8.23
2023-04-15T00:40:33.691Z,8.25
2023-04-15T00:43:01.144Z,8.21
2023-04-15T00:45:28.724Z,8.15
2023-04-15T00:47:56.873Z,8.12
2023-04-15T00:50:24.178Z,8.23
2023-04-15T00:52:51.969Z,8.27
2023-04-15T00:55:19.652Z,8.30
2023-04-15T00:57:46.991Z,8.35
2023-04-15T01:00:14.576Z,8.28
2023-04-15T01:02:42.326Z,8.24
2023-04-15T01:05:09.823Z,8.09
2023-04-15T01:07:37.093Z,7.67
2023-04-15T01:10:05.165Z,7.66
2023-04-15T01:12:33.143Z,7.75
2023-04-15T01:15:01.100Z,7.81
2023-04-15T01:17:28.630Z,7.86
2023-04-15T01:19:57.943Z,7.91
2023-04-15T01:22:26.786Z,8.03
2023-04-15T01:25:04.753Z,8.06
2023-04-15T01:27:32.847Z,8.07
2023-04-15T01:30:00.356Z,8.14
2023-04-15T01:32:28.096Z,8.25
2023-04-15T01:35:13.766Z,8.30
2023-04-15T01:37:48.395Z,8.27
2023-04-15T01:40:17.416Z,8.30
2023-04-15T01:42:46.636Z,8.35
2023-04-15T01:45:17.507Z,8.39
2023-04-15T01:47:46.207Z,8.39
2023-04-15T01:50:15.304Z,8.38
2023-04-15T01:52:43.676Z,8.42
2023-04-15T01:55:12.683Z,8.40
2023-04-15T01:57:41.225Z,8.40
2023-04-15T02:00:10.053Z,8.42
2023-04-15T02:02:41.730Z,8.47
2023-04-15T02:05:10.985Z,8.48
2023-04-15T02:07:39.446Z,8.45
2023-04-15T02:10:08.997Z,8.43
2023-04-15T02:12:37.757Z,8.43
2023-04-15T02:15:07.179Z,8.40
2023-04-15T02:17:37.416Z,8.34
2023-04-15T02:20:06.550Z,8.31
2023-04-15T02:22:35.218Z,8.38
2023-04-15T02:25:04.333Z,8.34
2023-04-15T02:27:33.719Z,8.31
2023-04-15T02:30:02.423Z,8.32
2023-04-15T02:32:31.265Z,8.37
2023-04-15T02:35:03.961Z,8.42
2023-04-15T02:37:32.566Z,8.48
2023-04-15T02:40:01.700Z,8.42
2023-04-15T02:42:31.907Z,8.32
2023-04-15T02:45:01.147Z,8.27
2023-04-15T02:47:30.366Z,8.32
2023-04-15T02:50:00.492Z,8.34
2023-04-15T02:52:31.174Z,8.37
2023-04-15T02:55:02.486Z,8.11
2023-04-15T02:57:31.221Z,8.20
2023-04-15T03:00:00.010Z,8.33
2023-04-15T03:02:34.336Z,8.38
2023-04-15T03:05:04.157Z,8.29
2023-04-15T03:07:32.599Z,8.30
2023-04-15T03:10:01.203Z,8.24
2023-04-15T03:12:30.415Z,8.06
2023-04-15T03:15:00.422Z,8.04
2023-04-15T03:17:29.691Z,8.15
2023-04-15T03:19:58.717Z,8.19
2023-04-15T03:22:27.210Z,8.12
2023-04-15T03:24:56.177Z,8.04
2023-04-15T03:27:25.524Z,7.84
2023-04-15T03:29:56.869Z,7.71
2023-04-15T03:32:27.176Z,7.69
2023-04-15T03:34:55.759Z,7.76
2023-04-15T03:37:24.165Z,7.93
2023-04-15T03:39:52.884Z,7.95
2023-04-15T03:42:21.289Z,7.94
2023-04-15T03:44:49.749Z,8.03
2023-04-15T03:47:18.525Z,8.09
2023-04-15T03:49:46.934Z,7.93
2023-04-15T03:52:15.468Z,7.82
2023-04-15T03:54:44.221Z,7.77
2023-04-15T03:57:12.746Z,7.70
2023-04-15T03:59:41.204Z,7.70
2023-04-15T04:02:09.979Z,7.86
2023-04-15T04:04:38.870Z,7.80
2023-04-15T04:07:07.323Z,7.76
2023-04-15T04:09:36.312Z,7.74
2023-04-15T04:12:05.067Z,7.77
2023-04-15T04:14:33.465Z,7.75
2023-04-15T04:17:02.022Z,7.75
2023-04-15T04:19:31.007Z,7.87
2023-04-15T04:21:59.417Z,7.96
2023-04-15T04:24:27.883Z,8.13
2023-04-15T04:26:57.303Z,8.15
2023-04-15T04:29:25.829Z,8.20
2023-04-15T04:31:54.234Z,8.18
2023-04-15T04:34:22.976Z,7.89
2023-04-15T04:36:51.603Z,7.75
2023-04-15T04:39:20.048Z,7.83
2023-04-15T04:41:48.871Z,7.96
2023-04-15T04:44:17.455Z,8.11
2023-04-15T04:46:45.905Z,8.22
2023-04-15T04:49:14.622Z,8.35
2023-04-15T04:51:43.197Z,8.50
2023-04-15T04:54:11.856Z,8.68
2023-04-15T04:56:41.045Z,8.71
2023-04-15T04:59:09.471Z,8.66
2023-04-15T05:01:38.027Z,8.68
2023-04-15T05:04:07.913Z,8.87
2023-04-15T05:06:36.845Z,8.95
2023-04-15T05:09:05.299Z,9.16
2023-04-15T05:11:33.990Z,9.19
2023-04-15T05:14:02.482Z,9.36
2023-04-15T05:16:30.922Z,9.41
2023-04-15T05:18:59.826Z,9.48
2023-04-15T05:21:28.333Z,9.54
2023-04-15T05:23:56.705Z,9.49
2023-04-15T05:26:25.711Z,9.59
2023-04-15T05:28:54.254Z,9.60
2023-04-15T05:31:22.885Z,9.63
2023-04-15T05:33:51.666Z,9.59
2023-04-15T05:36:20.075Z,9.81
2023-04-15T05:38:48.468Z,9.79
2023-04-15T05:41:19.705Z,9.96
2023-04-15T05:43:48.247Z,10.09
2023-04-15T05:46:17.015Z,10.46
2023-04-15T05:48:45.559Z,10.73
2023-04-15T05:51:14.025Z,10.92
2023-04-15T05:53:42.690Z,11.03
2023-04-15T05:56:11.032Z,11.23
2023-04-15T05:58:39.372Z,11.30
2023-04-15T06:01:07.978Z,11.25
2023-04-15T06:03:36.672Z,11.41
2023-04-15T06:06:05.130Z,11.33
2023-04-15T06:08:33.461Z,11.52
2023-04-15T06:11:02.126Z,11.67
2023-04-15T06:13:30.454Z,11.85
2023-04-15T06:15:58.999Z,11.92
2023-04-15T06:18:27.635Z,11.93
2023-04-15T06:20:56.053Z,11.97
2023-04-15T06:23:25.743Z,11.65
2023-04-15T06:25:55.056Z,11.53
2023-04-15T06:28:23.378Z,11.66
2023-04-15T06:30:51.687Z,11.90
2023-04-15T06:33:20.950Z,11.96
2023-04-15T06:35:49.746Z,12.20
2023-04-15T06:38:18.121Z,12.16
2023-04-15T06:40:46.718Z,12.11
2023-04-15T06:43:15.429Z,12.15
2023-04-15T06:45:43.838Z,12.22
2023-04-15T06:48:12.782Z,12.30
2023-04-15T06:50:41.374Z,12.32
2023-04-15T06:53:09.760Z,12.32
2023-04-15T06:55:38.452Z,12.63
2023-04-15T06:58:06.992Z,12.70
2023-04-15T07:00:35.648Z,12.83
2023-04-15T07:03:04.380Z,12.94
2023-04-15T07:05:33.517Z,13.13
2023-04-15T07:08:01.993Z,12.90
2023-04-15T07:10:30.653Z,12.68
2023-04-15T07:12:58.993Z,12.71
2023-04-15T07:15:27.473Z,12.79
2023-04-15T07:17:56.408Z,12.69
2023-04-15T07:20:24.968Z,12.88
2023-04-15T07:22:53.883Z,13.14
2023-04-15T07:25:22.849Z,13.12
2023-04-15T07:27:53.064Z,13.08
2023-04-15T07:30:21.491Z,13.06
2023-04-15T07:32:50.214Z,13.02
2023-04-15T07:35:21.133Z,13.04
2023-04-15T07:37:49.800Z,13.17
2023-04-15T07:40:18.189Z,13.10
2023-04-15T07:42:47.268Z,13.03
2023-04-15T07:45:16.277Z,12.93
2023-04-15T07:47:44.660Z,12.93
2023-04-15T07:50:13.040Z,12.78
2023-04-15T07:52:41.986Z,12.72
2023-04-15T07:55:10.796Z,12.75
2023-04-15T07:57:39.109Z,12.97
2023-04-15T08:00:08.396Z,12.78
2023-04-15T08:02:41.592Z,12.85
2023-04-15T08:05:10.860Z,13.01
2023-04-15T08:07:39.770Z,13.02
2023-04-15T08:10:08.736Z,12.84
2023-04-15T08:12:37.454Z,12.80
2023-04-15T08:15:08.156Z,13.05
2023-04-15T08:17:36.882Z,13.18
2023-04-15T08:20:05.957Z,13.01
2023-04-15T08:22:34.498Z,12.94
2023-04-15T08:25:03.905Z,13.05
2023-04-15T08:27:31.231Z,13.01
2023-04-15T08:29:59.647Z,12.89
2023-04-15T08:32:28.492Z,12.86
2023-04-15T08:34:56.924Z,12.91
2023-04-15T08:37:28.423Z,13.07
2023-04-15T08:39:57.070Z,13.27
2023-04-15T08:42:36.354Z,13.44
2023-04-15T08:45:05.849Z,13.58
2023-04-15T08:47:35.152Z,13.63
2023-04-15T08:50:04.428Z,13.70
2023-04-15T08:52:33.366Z,13.92
2023-04-15T08:55:03.405Z,14.03
2023-04-15T08:57:32.187Z,14.25
2023-04-15T09:00:05.363Z,14.27
2023-04-15T09:02:34.537Z,14.24
2023-04-15T09:05:06.506Z,14.13
2023-04-15T09:07:36.478Z,14.10
2023-04-15T09:10:05.577Z,14.22
2023-04-15T09:12:36.186Z,14.17
2023-04-15T09:15:05.420Z,14.26
2023-04-15T09:17:34.608Z,14.33
2023-04-15T09:20:13.678Z,14.37
2023-04-15T09:22:43.770Z,14.36
2023-04-15T09:25:15.108Z,14.30
2023-04-15T09:27:50.975Z,14.13
2023-04-15T09:30:19.363Z,14.22
2023-04-15T09:32:51.275Z,14.15
2023-04-15T09:35:26.495Z,14.29
2023-04-15T09:38:07.289Z,14.16
2023-04-15T09:40:36.507Z,14.05
2023-04-15T09:43:06.522Z,13.77
2023-04-15T09:45:36.459Z,13.20
2023-04-15T09:48:28.821Z,13.05
2023-04-15T09:51:01.369Z,13.06
2023-04-15T09:53:31.825Z,12.69
2023-04-15T09:56:02.369Z,12.93
2023-04-15T09:58:35.173Z,12.77
2023-04-15T10:01:05.134Z,12.53
2023-04-15T10:03:36.842Z,12.64
2023-04-15T10:06:08.382Z,12.67
2023-04-15T10:08:37.138Z,12.59
2023-04-15T10:11:06.435Z,12.54
2023-04-15T10:13:37.156Z,12.44
2023-04-15T10:16:10.852Z,12.13
2023-04-15T10:18:44.588Z,12.15
2023-04-15T10:21:16.447Z,12.01
2023-04-15T10:23:48.174Z,11.97
2023-04-15T10:26:17.744Z,11.95
2023-04-15T10:28:49.587Z,12.03
2023-04-15T10:31:18.608Z,12.18
2023-04-15T10:33:48.668Z,12.40
2023-04-15T10:36:19.109Z,12.18
2023-04-15T10:38:47.992Z,12.18
2023-04-15T10:41:26.831Z,12.12
2023-04-15T10:43:59.442Z,12.19
2023-04-15T10:46:41.184Z,12.22
2023-04-15T10:49:17.965Z,12.23
2023-04-15T10:51:51.162Z,12.24
2023-04-15T10:54:26.008Z,12.30
2023-04-15T10:57:01.507Z,12.30
2023-04-15T10:59:30.848Z,12.39
2023-04-15T11:02:08.719Z,12.57
2023-04-15T11:05:01.055Z,12.48
2023-04-15T11:07:35.706Z,12.52
2023-04-15T11:10:30.938Z,12.52
2023-04-15T11:13:06.032Z,12.57
2023-04-15T11:15:42.523Z,12.62
2023-04-15T11:18:12.687Z,12.60
2023-04-15T11:21:03.451Z,12.70
2023-04-15T11:23:34.573Z,12.68
2023-04-15T11:26:12.425Z,12.84
2023-04-15T11:28:43.058Z,12.90
2023-04-15T11:31:14.110Z,13.02
2023-04-15T11:33:59.395Z,13.18
2023-04-15T11:36:30.171Z,13.18
2023-04-15T11:38:59.897Z,13.12
2023-04-15T11:41:28.626Z,13.18
2023-04-15T11:43:57.044Z,13.28
2023-04-15T11:46:32.030Z,13.29
2023-04-15T11:49:01.659Z,13.33
2023-04-15T11:51:33.759Z,13.38
2023-04-15T11:54:01.488Z,13.48
2023-04-15T11:56:28.874Z,13.59
2023-04-15T11:58:59.940Z,13.44
2023-04-15T12:01:44.004Z,13.31
2023-04-15T12:04:13.416Z,13.39
2023-04-15T12:06:41.356Z,13.39
2023-04-15T12:09:18.027Z,13.55
2023-04-15T12:11:55.234Z,13.58
2023-04-15T12:14:25.113Z,13.67
2023-04-15T12:16:55.213Z,13.72
2023-04-15T12:19:30.656Z,13.65
2023-04-15T12:22:03.311Z,13.59
2023-04-15T12:24:34.476Z,13.48
2023-04-15T12:27:06.903Z,13.32
2023-04-15T12:29:36.020Z,13.25
2023-04-15T12:32:13.082Z,13.23
2023-04-15T12:34:49.457Z,13.35
2023-04-15T12:37:16.975Z,13.48
2023-04-15T12:39:46.049Z,13.47
2023-04-15T12:42:13.174Z,13.41
2023-04-15T12:44:40.621Z,13.36
2023-04-15T12:47:09.321Z,13.54
2023-04-15T12:49:36.553Z,13.37
2023-04-15T12:52:04.740Z,13.65
2023-04-15T12:54:32.344Z,13.75
2023-04-15T12:57:00.028Z,13.73
2023-04-15T12:59:27.508Z,13.74
2023-04-15T13:01:54.931Z,13.68
2023-04-15T13:04:22.496Z,13.63
2023-04-15T13:06:50.162Z,13.55
2023-04-15T13:09:17.460Z,13.44
2023-04-15T13:11:44.693Z,13.58
2023-04-15T13:14:13.102Z,13.69
2023-04-15T13:16:40.876Z,13.71
2023-04-15T13:19:08.372Z,13.68
2023-04-15T13:21:36.362Z,13.88
2023-04-15T13:24:04.940Z,14.06
2023-04-15T13:26:32.886Z,14.01
2023-04-15T13:29:01.311Z,14.04
2023-04-15T13:31:28.755Z,13.96
2023-04-15T13:33:57.069Z,14.15
2023-04-15T13:36:24.598Z,14.11
2023-04-15T13:38:52.061Z,14.13
2023-04-15T13:41:20.101Z,14.06
2023-04-15T13:43:47.593Z,13.76
2023-04-15T13:46:14.960Z,13.87
2023-04-15T13:48:42.375Z,13.98
2023-04-15T13:51:09.921Z,13.97
2023-04-15T13:53:38.972Z,14.01
2023-04-15T13:56:08.102Z,14.17
2023-04-15T13:58:36.704Z,14.38
2023-04-15T14:01:05.780Z,14.34
2023-04-15T14:03:36.082Z,14.41
2023-04-15T14:06:03.771Z,14.68
2023-04-15T14:08:31.691Z,14.67
2023-04-15T14:10:59.104Z,14.63
2023-04-15T14:13:26.216Z,14.60
2023-04-15T14:15:53.364Z,14.49
2023-04-15T14:18:23.538Z,14.37
2023-04-15T14:20:50.654Z,14.39
2023-04-15T14:23:17.828Z,14.32
2023-04-15T14:25:47.908Z,14.22
2023-04-15T14:28:15.782Z,14.07
2023-04-15T14:30:43.133Z,14.19
2023-04-15T14:33:10.575Z,14.19
2023-04-15T14:35:37.998Z,14.14
2023-04-15T14:38:06.145Z,14.23
2023-04-15T14:40:33.775Z,14.19
2023-04-15T14:43:00.902Z,14.26
2023-04-15T14:45:28.067Z,14.27
2023-04-15T14:47:55.959Z,14.25
2023-04-15T14:50:23.376Z,14.21
2023-04-15T14:52:50.522Z,14.30
2023-04-15T14:55:17.922Z,14.28
2023-04-15T14:57:45.039Z,14.22
2023-04-15T15:00:15.834Z,14.16
2023-04-15T15:02:44.011Z,14.07
2023-04-15T15:05:11.995Z,14.17
2023-04-15T15:07:40.955Z,14.06
2023-04-15T15:10:09.089Z,13.91
2023-04-15T15:12:36.535Z,13.88
2023-04-15T15:15:12.218Z,13.83
2023-04-15T15:17:47.489Z,13.79
2023-04-15T15:20:14.673Z,13.75
2023-04-15T15:22:41.800Z,13.71
2023-04-15T15:25:09.274Z,13.79
2023-04-15T15:27:38.225Z,13.79
2023-04-15T15:30:06.901Z,13.79
2023-04-15T15:32:34.590Z,13.62
2023-04-15T15:35:01.736Z,13.66
2023-04-15T15:37:30.880Z,13.39
2023-04-15T15:39:58.314Z,13.17
2023-04-15T15:42:25.552Z,13.06
2023-04-15T15:44:55.956Z,12.98
2023-04-15T15:47:23.564Z,12.95
2023-04-15T15:49:50.754Z,12.79
2023-04-15T15:52:19.337Z,12.90
2023-04-15T15:54:47.230Z,13.02
2023-04-15T15:57:14.431Z,13.21
2023-04-15T15:59:43.713Z,13.30
2023-04-15T16:02:12.732Z,13.30
2023-04-15T16:04:41.632Z,13.27
2023-04-15T16:07:10.625Z,13.22
2023-04-15T16:09:38.003Z,13.13
2023-04-15T16:12:05.524Z,12.94
2023-04-15T16:14:32.717Z,12.86
2023-04-15T16:16:59.873Z,12.71
2023-04-15T16:19:27.314Z,12.55
2023-04-15T16:21:54.948Z,12.54
2023-04-15T16:24:22.116Z,12.40
2023-04-15T16:26:49.527Z,12.24
2023-04-15T16:29:16.656Z,12.24
2023-04-15T16:31:43.798Z,12.31
2023-04-15T16:34:12.008Z,12.23
2023-04-15T16:36:40.583Z,12.21
2023-04-15T16:39:07.835Z,12.06
2023-04-15T16:41:35.407Z,12.01
2023-04-15T16:44:03.347Z,11.95
2023-04-15T16:46:31.626Z,11.96
2023-04-15T16:48:59.198Z,11.87
2023-04-15T16:51:27.350Z,11.78
2023-04-15T16:53:54.534Z,11.75
2023-04-15T16:56:22.137Z,11.67
2023-04-15T16:58:49.353Z,11.69
2023-04-15T17:01:16.801Z,11.71
2023-04-15T17:03:44.556Z,11.96
2023-04-15T17:06:12.143Z,12.24
2023-04-15T17:08:40.183Z,12.37
2023-04-15T17:11:07.693Z,12.55
2023-04-15T17:13:34.938Z,12.45
2023-04-15T17:16:02.477Z,12.33
2023-04-15T17:18:38.126Z,12.35
2023-04-15T17:21:13.234Z,12.30
2023-04-15T17:23:42.280Z,11.99
2023-04-15T17:26:09.858Z,11.63
2023-04-15T17:28:37.181Z,11.44
2023-04-15T17:31:08.079Z,11.24
2023-04-15T17:34:05.064Z,11.03
2023-04-15T17:36:37.095Z,10.98
2023-04-15T17:39:27.377Z,11.04
2023-04-15T17:42:15.674Z,10.78
2023-04-15T17:45:02.850Z,10.60
2023-04-15T17:47:50.324Z,10.45
2023-04-15T17:50:38.518Z,10.29
2023-04-15T17:53:26.099Z,10.20
2023-04-15T17:56:13.118Z,10.03
2023-04-15T17:59:02.477Z,9.99
2023-04-15T18:01:49.913Z,9.94
2023-04-15T18:04:37.528Z,10.00
2023-04-15T18:07:24.705Z,9.73
2023-04-15T18:10:12.149Z,9.51
2023-04-15T18:12:59.434Z,9.46
2023-04-15T18:15:48.666Z,9.44
2023-04-15T18:18:35.899Z,9.36
2023-04-15T18:21:03.392Z,9.29
2023-04-15T18:23:30.520Z,9.23
2023-04-15T18:25:58.166Z,9.21
2023-04-15T18:28:25.645Z,9.12
2023-04-15T18:30:53.623Z,9.07
2023-04-15T18:33:20.979Z,8.96
2023-04-15T18:35:49.974Z,8.92
2023-04-15T18:38:17.337Z,8.90
2023-04-15T18:40:44.443Z,8.84
2023-04-15T18:43:14.359Z,8.75
2023-04-15T18:45:41.601Z,8.72
2023-04-15T18:48:08.816Z,8.62
2023-04-15T18:50:36.386Z,8.54
2023-04-15T18:53:03.565Z,8.55
2023-04-15T18:55:31.373Z,8.41
2023-04-15T18:58:07.569Z,8.40
2023-04-15T19:00:40.342Z,8.42
2023-04-15T19:03:08.177Z,8.49
2023-04-15T19:05:36.042Z,8.50
2023-04-15T19:08:03.226Z,8.55
2023-04-15T19:10:30.693Z,8.49
2023-04-15T19:12:57.861Z,8.41
2023-04-15T19:15:25.184Z,8.52
2023-04-15T19:17:54.296Z,8.55
2023-04-15T19:20:22.900Z,8.59
2023-04-15T19:22:50.066Z,8.56
2023-04-15T19:25:17.563Z,8.52
2023-04-15T19:27:44.748Z,8.38
2023-04-15T19:30:12.121Z,8.34
2023-04-15T19:32:39.768Z,8.33
2023-04-15T19:35:08.320Z,8.34
2023-04-15T19:37:36.534Z,8.45
2023-04-15T19:40:04.769Z,8.56
2023-04-15T19:42:31.932Z,8.68
2023-04-15T19:44:59.138Z,8.68
2023-04-15T19:47:28.012Z,8.61
2023-04-15T19:49:55.382Z,8.63
2023-04-15T19:52:22.615Z,8.55
2023-04-15T19:54:50.177Z,8.56
2023-04-15T19:57:17.423Z,8.64
2023-04-15T19:59:44.620Z,8.63
2023-04-15T20:02:12.583Z,8.65
2023-04-15T20:04:40.268Z,8.69
2023-04-15T20:07:07.553Z,8.71
2023-04-15T20:09:34.765Z,8.63
2023-04-15T20:12:46.792Z,8.60
2023-04-15T20:14:49.510Z,8.66
2023-04-15T20:17:17.095Z,8.67
2023-04-15T20:19:44.316Z,8.72
2023-04-15T20:22:11.498Z,8.70
2023-04-15T20:24:38.993Z,8.65
2023-04-15T20:27:06.186Z,8.70
2023-04-15T20:29:33.599Z,8.70
2023-04-15T20:32:01.213Z,8.73
2023-04-15T20:34:28.439Z,8.71
2023-04-15T20:36:55.823Z,8.75
2023-04-15T20:39:23.336Z,8.81
2023-04-15T20:41:50.752Z,8.85
2023-04-15T20:44:17.984Z,8.80
2023-04-15T20:46:45.743Z,8.70
2023-04-15T20:49:12.910Z,8.62
2023-04-15T20:51:40.058Z,8.63
2023-04-15T20:54:07.446Z,8.65
2023-04-15T20:56:34.610Z,8.56
2023-04-15T20:59:01.779Z,8.55
2023-04-15T21:01:29.298Z,8.52
2023-04-15T21:03:56.572Z,8.49
2023-04-15T21:06:23.689Z,8.54
2023-04-15T21:08:52.448Z,8.44
2023-04-15T21:11:38.850Z,8.39
2023-04-15T21:14:08.434Z,8.40
2023-04-15T21:16:35.753Z,8.44
2023-04-15T21:19:03.237Z,8.46
2023-04-15T21:21:31.977Z,8.46
2023-04-15T21:23:59.613Z,8.42
2023-04-15T21:26:26.799Z,8.38
2023-04-15T21:28:54.287Z,8.38
2023-04-15T21:31:22.115Z,8.37
2023-04-15T21:33:49.606Z,8.36
2023-04-15T21:36:17.076Z,8.30
2023-04-15T21:38:44.315Z,8.23
2023-04-15T21:41:11.525Z,8.19
2023-04-15T21:43:38.998Z,8.20
2023-04-15T21:46:22.695Z,8.23
2023-04-15T21:48:53.570Z,8.22
2023-04-15T21:51:20.867Z,8.47
2023-04-15T21:53:48.255Z,8.64
2023-04-15T21:56:15.873Z,8.75
2023-04-15T21:58:43.165Z,8.84
2023-04-15T22:01:10.515Z,8.76
2023-04-15T22:03:38.166Z,8.76
2023-04-15T22:06:05.506Z,8.77
2023-04-15T22:08:38.654Z,8.63
2023-04-15T22:11:29.600Z,8.54
2023-04-15T22:13:58.320Z,8.49
2023-04-15T22:16:26.545Z,8.48
2023-04-15T22:18:54.739Z,8.50
2023-04-15T22:21:22.160Z,8.43
2023-04-15T22:23:49.871Z,8.33
2023-04-15T22:26:16.955Z,8.33
2023-04-15T22:28:44.173Z,8.28
2023-04-15T22:31:11.665Z,8.26
2023-04-15T22:33:39.006Z,8.21
2023-04-15T22:36:06.401Z,8.26
2023-04-15T22:38:33.916Z,8.26
2023-04-15T22:41:01.239Z,8.21
2023-04-15T22:43:28.435Z,8.24
2023-04-15T22:45:56.691Z,8.28
2023-04-15T22:48:24.033Z,8.27
2023-04-15T22:50:51.324Z,8.20
2023-04-15T22:53:19.025Z,8.23
2023-04-15T22:55:49.591Z,8.18
2023-04-15T22:58:18.354Z,8.18
2023-04-15T23:00:45.934Z,8.10
2023-04-15T23:03:13.267Z,8.02
2023-04-15T23:05:41.233Z,8.01
2023-04-15T23:08:08.825Z,7.95
2023-04-15T23:10:35.949Z,7.95
2023-04-15T23:13:03.080Z,7.88
2023-04-15T23:15:30.540Z,7.85
2023-04-15T23:17:57.678Z,7.88
2023-04-15T23:20:24.888Z,7.84
2023-04-15T23:22:52.313Z,7.91
2023-04-15T23:25:22.245Z,7.88
2023-04-15T23:27:49.546Z,7.86
2023-04-15T23:30:17.036Z,7.83
2023-04-15T23:32:44.347Z,7.87
2023-04-15T23:35:11.680Z,7.88
2023-04-15T23:37:39.161Z,7.82
2023-04-15T23:40:07.052Z,7.83
2023-04-15T23:42:34.239Z,7.89
2023-04-15T23:45:01.858Z,7.87
2023-04-15T23:47:30.934Z,7.78
2023-04-15T23:49:58.022Z,7.73
2023-04-15T23:52:25.456Z,7.70
2023-04-15T23:54:52.586Z,7.58
2023-04-15T23:57:19.796Z,7.55
2023-04-15T23:59:47.261Z,7.50
